Station info - map view · info · telemetry · weather · raw · status · beacons · messages · bulletins · browse · moving · my account
Callsign, ship name or locator: Clear       
It is possible to search using wildcards (*?) after a prefix. Example: OH*
APRS station IW2GOB-9 - show graphs
Map loading...
Comment: Op. Maurizio - RCD710+IC2820+AVM6
Mic-E message: En route
Location: 45°18.78' N 9°30.98' E - locator JN45SH15XC - show map - static map
0.7 miles East bearing 93° from Lodi, Provincia di Lodi, Lombardy, Italy [?]
2.3 miles Northeast bearing 37° from Cornegliano Laudense, Provincia di Lodi, Lombardy, Italy
19.0 miles Southeast bearing 123° from Milan, Province of Milan, Lombardy, Italy
68.8 miles Northeast bearing 24° from Genova, Province of Genoa, Liguria, Italy
Last position: 2018-01-08 02:03:17 EST (10d 10h51m ago)
2018-01-08 08:03:17 CET local time at Lodi, Italy [?]
Altitude: 203 ft
Course: 115°
Speed: 4 MPH
Device: Kenwood: TM-D710 (rig)
Last path: IW2GOB-9>TU1XW8 via WIDE1-1,WIDE2-2,qAR,IR2UCL (good)
Positions stored: 145449
Other SSIDs: IW2GOB IW2GOB-1 IW2GOB-11 IW2GOB-2 IW2GOB-3 IW2GOB-7 IW2GOB-8 IW2GOB-99 IW2GOB-A IW2GOB-B IW2GOB-H0 IW2GOB-N IW2GOB-R IW2GOB-Y
Stations near current position of IW2GOB-9 - show more
callsign distance last heard - EST      callsign distance last heard - EST
IK2PYX-R0.6 miles 249°2018-01-17 10:13:06 IW2GOB-31.0 miles 167°2018-01-18 12:53:41
IW2GOB-21.0 miles 167°2018-01-18 12:49:40 IW2GOB-111.0 miles 167°2018-01-18 12:37:24
IW2GOB-A1.4 miles 253°2018-01-16 14:11:55 IW2GOB1.5 miles 254°2018-01-18 07:53:47
IW2GOB-B1.5 miles 254°2018-01-18 12:46:45 IW2GOB B1.5 miles 254°2018-01-18 12:46:35
IR2AY C1.5 miles 254°2018-01-18 12:47:22 IR2AY-C1.5 miles 254°2018-01-18 12:47:32
IR2AY B1.5 miles 254°2018-01-18 12:47:42 IR2AY-B1.5 miles 254°2018-01-18 12:47:52
IW2GOB-R1.5 miles 254°2018-01-18 12:46:18 IW2GOB-H01.5 miles 254°2018-01-18 12:30:39
IW2GOB-Y1.5 miles 256°2018-01-15 19:23:10 IK2HKN2.7 miles 303°2018-01-02 08:34:56
IK2GVA2.8 miles 285°2018-01-13 07:49:02 IZ2SQG5.0 miles 240°2018-01-07 16:16:36
HG5DI-216.3 miles 8°2018-01-11 00:41:51 IK2UCH-R7.4 miles 293°2018-01-18 12:46:20
Stations which heard IW2GOB-9 directly on radio –
callsign pkts first heard - EST last heard longest (tx => rx) longest at - EST
IR5X 53 2018-01-06 12:52:31 2018-01-06 14:07:45 JN44WJ > JN53GS 55.1 miles 141° 2018-01-06 14:07:45
IR3BT 16 2018-01-06 14:37:41 2018-01-06 15:15:50 JN54BR > JN56MD 106.4 miles 24° 2018-01-06 14:37:41
IK2XDE-6 3 2018-01-06 14:20:24 2018-01-08 01:44:55 JN44XM > JN45MQ 91.8 miles 333° 2018-01-06 14:20:24
IR2AO 22 2018-01-06 14:17:34 2018-01-08 01:59:55 JN44XL > JN45PM 77.4 miles 337° 2018-01-06 14:17:34
IR2UBX-11 6 2018-01-06 14:20:26 2018-01-06 15:37:49 JN44XM > JN45MQ 92.5 miles 331° 2018-01-06 14:20:26
IR4AN 28 2018-01-06 14:36:39 2018-01-06 15:27:49 JN45RF > JN54FK 74.4 miles 139° 2018-01-06 15:27:49
IK2CHZ-11 2 2018-01-06 15:28:49 2018-01-06 16:22:42 JN45RG > JN45UI 12.7 miles 56° 2018-01-06 15:28:49
IR1AX-11 3 2018-01-06 15:15:57 2018-01-06 15:21:53 JN45TD > JN44KL 59.0 miles 218° 2018-01-06 15:21:53
IR2BQ 7 2018-01-06 14:18:10 2018-01-08 01:51:52 JN44XM > JN55CN 73.0 miles 10° 2018-01-06 14:18:10
IR2BZ 19 2018-01-06 14:19:34 2018-01-08 02:03:01 JN44XM > JN45XO 74.3 miles 360° 2018-01-06 14:19:34
IR0DA 2 2018-01-05 09:41:34 2018-01-05 09:42:50 JM49LH > JM49OF 18.1 miles 107° 2018-01-05 09:42:50
IR2T 2 2018-01-06 15:15:50 2018-01-06 15:41:34 JN45UB > JN56EB 75.9 miles 24° 2018-01-06 15:15:50
IW2GOB-2 1 2018-01-08 02:01:46 2018-01-08 02:01:46 JN45SH > JN45SH 1.1 miles 158° 2018-01-08 02:01:46
IW2GOB-11 2 2018-01-08 01:47:11 2018-01-08 01:48:23 JN45RH > JN45SH 1.4 miles 111° 2018-01-08 01:47:11
IQ2ER 3 2018-01-06 15:31:38 2018-01-08 02:02:05 JN45RG > JN45OT 37.7 miles 345° 2018-01-06 15:31:38
IR2S 24 2018-01-06 14:24:50 2018-01-08 02:03:17 JN44XN > JN55DQ 77.0 miles 11° 2018-01-06 14:24:50
IR0AAI-12 39 2018-01-06 02:15:32 2018-01-06 03:15:56 JN40RJ > JN40HD 45.8 miles 250° 2018-01-06 03:15:56
IR0UDY-12 18 2018-01-06 04:19:46 2018-01-06 04:37:08 JN40TS > JN40OU 23.3 miles 281° 2018-01-06 04:19:46
IR2BW 8 2018-01-06 15:30:18 2018-01-06 16:18:46 JN45RG > JN55DN 45.1 miles 63° 2018-01-06 15:30:18
IR0UCW-12 15 2018-01-06 02:29:09 2018-01-06 02:56:31 JN40NG > JN40FM 38.7 miles 294° 2018-01-06 02:56:31
IR2DF 7 2018-01-06 15:07:48 2018-01-06 15:44:21 JN44WX > JN55AS 54.6 miles 7° 2018-01-06 15:07:48
IK2ILW 3 2018-01-06 14:53:29 2018-01-06 15:44:40 JN54CU > JN45VV 74.2 miles 343° 2018-01-06 14:53:29
IZ1XBB-1 1 2018-01-06 16:20:49 2018-01-06 16:20:49 JN45RH > JN44KV 41.6 miles 227° 2018-01-06 16:20:49
IQ4SC 3 2018-01-06 14:51:26 2018-01-06 14:57:18 JN54BV > JN54IO 33.0 miles 126° 2018-01-06 14:57:18
IR5UBH-10 1 2018-01-06 13:15:46 2018-01-06 13:15:46 JN53EQ > JN52TV 85.1 miles 131° 2018-01-06 13:15:46
IR2BY 11 2018-01-06 15:25:19 2018-01-08 02:02:04 JN45SF > JN55BQ 43.3 miles 38° 2018-01-06 15:25:19
IR2UCL 4 2018-01-06 15:39:44 2018-01-08 02:03:17 JN45SH > JN45UP 25.9 miles 18° 2018-01-06 15:39:44
IR2UEZ 1 2018-01-06 14:24:00 2018-01-06 14:24:00 JN44XN > JN45JP 93.5 miles 323° 2018-01-06 14:24:00
IQ3VO 5 2018-01-06 15:10:49 2018-01-08 01:51:39 JN45RG > JN55MQ 82.5 miles 69° 2018-01-06 15:33:14
IZ1REU-11 1 2018-01-06 12:54:30 2018-01-06 12:54:30 JN53DN > JN44MJ 86.3 miles 314° 2018-01-06 12:54:30
IR2UGD 2 2018-01-06 15:32:06 2018-01-06 15:35:55 JN45RG > JN45PJ 12.2 miles 309° 2018-01-06 15:35:55
IR2DQ 35 2018-01-06 14:05:48 2018-01-06 16:19:46 JN44WI > JN55AD 56.0 miles 6° 2018-01-06 14:05:48

Only position packets which were originated by the station are shown here. The range statistics show some extra long hops, because some digipeaters do not correctly add themselves to the digipeater path. Please check the raw packets.
About this site
This page shows real-time information collected from the Automatic Position Reporting System Internet network (APRS-IS). APRS is used by amateur (ham) radio operators to transmit real-time position information, weather data, telemetry and messages over the radio. A vehicle equipped with a GPS receiver, a VHF transmitter or HF transceiver and a small computer device called a tracker transmits it's location, speed and course in a small data packet, which is then received by a nearby iGate receiving site which forwards the packet on the Internet. Systems connected to the Internet can send information on the APRS-IS without a radio transmitter, or collect and display information transmitted anywhere in the world.
FAQ · Blog · Discussion group · Linking to aprs.fi · AIS sites · Service status · Database statistics · Advertising on aprs.fi · Technical details · API · Change log · Planned changes · Credits and thanks · Terms Of Service · iPhone/iPad APRS